createdAt,value
2018-03-21T04:32:34.681Z,96.90
2018-03-21T04:35:08.499Z,97.10
2018-03-21T04:37:42.270Z,97.10
2018-03-21T04:40:16.785Z,96.90
2018-03-21T04:42:50.561Z,96.90
2018-03-21T04:45:24.387Z,96.90
2018-03-21T04:47:58.957Z,97.10
2018-03-21T04:50:32.884Z,97.10
2018-03-21T04:53:06.616Z,97.10
2018-03-21T04:55:40.391Z,97.10
2018-03-21T04:58:34.520Z,97.20
2018-03-21T05:01:09.197Z,97.10
2018-03-21T05:03:43.140Z,97.10
2018-03-21T05:06:16.949Z,97.20
2018-03-21T05:08:51.465Z,97.50
2018-03-21T05:11:25.464Z,97.50
2018-03-21T05:13:59.155Z,97.40
2018-03-21T05:16:33.293Z,97.20
2018-03-21T05:19:07.932Z,97.20
2018-03-21T05:21:41.649Z,97.20
2018-03-21T05:24:15.476Z,97.30
2018-03-21T05:26:50.079Z,97.50
2018-03-21T05:29:23.848Z,97.50
2018-03-21T05:31:58.617Z,97.50
2018-03-21T05:34:32.422Z,97.50
2018-03-21T05:37:06.232Z,97.60
2018-03-21T05:39:40.148Z,97.50
2018-03-21T05:42:13.930Z,97.40
2018-03-21T05:44:47.736Z,97.40
2018-03-21T05:47:21.760Z,97.50
2018-03-21T05:49:56.258Z,97.50
2018-03-21T05:52:34.288Z,97.50
2018-03-21T05:55:08.910Z,97.40
2018-03-21T05:57:42.725Z,97.40
2018-03-21T06:00:17.571Z,97.40
2018-03-21T06:02:52.384Z,97.40
2018-03-21T06:05:26.978Z,97.30
2018-03-21T06:08:01.147Z,97.30
2018-03-21T06:10:38.824Z,97.30
2018-03-21T06:13:12.671Z,97.20
2018-03-21T06:15:50.420Z,97.20
2018-03-21T06:18:24.296Z,97.10
2018-03-21T06:20:58.111Z,97.00
2018-03-21T06:23:32.763Z,97.00
2018-03-21T06:26:07.565Z,96.90
2018-03-21T06:28:42.138Z,96.70
2018-03-21T06:31:16.132Z,96.70
2018-03-21T06:33:50.268Z,96.50
2018-03-21T06:36:25.094Z,96.50
2018-03-21T06:39:05.706Z,96.60
2018-03-21T06:41:41.593Z,96.50
2018-03-21T06:44:15.304Z,96.40
2018-03-21T06:46:49.100Z,96.00
2018-03-21T06:49:22.930Z,95.80
2018-03-21T06:51:59.476Z,95.30
2018-03-21T06:54:33.372Z,95.20
2018-03-21T06:57:07.283Z,95.50
2018-03-21T06:59:41.161Z,95.60
2018-03-21T07:02:15.004Z,95.70
2018-03-21T07:04:48.819Z,95.30
2018-03-21T07:07:22.628Z,95.30
2018-03-21T07:09:56.490Z,95.30
2018-03-21T07:12:34.616Z,95.40
2018-03-21T07:15:21.596Z,95.10
2018-03-21T07:17:55.689Z,94.90
2018-03-21T07:20:29.336Z,94.90
2018-03-21T07:23:03.176Z,94.60
2018-03-21T07:25:37.568Z,93.80
2018-03-21T07:28:12.216Z,94.20
2018-03-21T07:30:46.800Z,94.50
2018-03-21T07:33:20.851Z,94.30
2018-03-21T07:35:54.595Z,94.30
2018-03-21T07:38:28.252Z,94.30
2018-03-21T07:41:01.907Z,94.10
2018-03-21T07:43:35.840Z,93.20
2018-03-21T07:46:09.660Z,93.10
2018-03-21T07:48:43.516Z,93.10
2018-03-21T07:51:17.196Z,92.80
2018-03-21T07:53:51.814Z,92.80
2018-03-21T07:56:25.540Z,92.80
2018-03-21T07:58:59.330Z,93.40
2018-03-21T08:01:33.052Z,92.90
2018-03-21T08:04:06.861Z,92.80
2018-03-21T08:06:41.433Z,92.20
2018-03-21T08:09:15.348Z,92.20
2018-03-21T08:11:49.804Z,91.70
2018-03-21T08:14:23.679Z,91.60
2018-03-21T08:16:58.906Z,91.10
2018-03-21T08:19:32.765Z,91.10
2018-03-21T08:22:06.956Z,90.30
2018-03-21T08:24:40.767Z,88.30
2018-03-21T08:27:19.358Z,80.70
2018-03-21T08:29:53.863Z,71.90
2018-03-21T08:32:27.493Z,71.70
2018-03-21T08:35:02.331Z,72.20
2018-03-21T08:37:37.050Z,74.10
2018-03-21T08:40:11.665Z,75.20
2018-03-21T08:42:45.537Z,75.20
2018-03-21T08:45:19.238Z,76.20
2018-03-21T08:47:53.820Z,80.20
2018-03-21T08:50:27.624Z,80.20
2018-03-21T08:53:01.461Z,76.30
2018-03-21T08:55:35.403Z,75.30
2018-03-21T08:58:09.059Z,77.20
2018-03-21T09:00:42.912Z,76.10
2018-03-21T09:03:17.641Z,73.80
2018-03-21T09:05:51.452Z,67.20
2018-03-21T09:08:25.148Z,62.30
2018-03-21T09:10:59.013Z,56.70
2018-03-21T09:13:32.728Z,55.10
2018-03-21T09:16:06.525Z,57.90
2018-03-21T09:18:40.307Z,55.80
2018-03-21T09:21:14.039Z,54.70
2018-03-21T09:23:47.826Z,53.80
2018-03-21T09:26:21.720Z,53.20
2018-03-21T09:28:55.440Z,53.70
2018-03-21T09:31:29.963Z,55.70
2018-03-21T09:34:05.694Z,54.80
2018-03-21T09:36:39.584Z,55.30
2018-03-21T09:39:13.755Z,54.60
2018-03-21T09:41:47.454Z,56.70
2018-03-21T09:44:22.295Z,56.40
2018-03-21T09:46:56.110Z,57.10
2018-03-21T09:49:30.732Z,54.60
2018-03-21T09:52:05.412Z,54.70
2018-03-21T09:54:43.149Z,54.70
2018-03-21T09:57:16.821Z,51.70
2018-03-21T09:59:50.528Z,47.20
2018-03-21T10:02:24.335Z,47.50
2018-03-21T10:04:58.937Z,47.00
2018-03-21T10:07:32.661Z,47.00
2018-03-21T10:10:06.272Z,47.10
2018-03-21T10:12:39.968Z,48.60
2018-03-21T10:15:13.755Z,50.70
2018-03-21T10:17:47.474Z,49.30
2018-03-21T10:20:21.288Z,47.50
2018-03-21T10:22:55.036Z,44.50
2018-03-21T10:25:29.467Z,38.10
2018-03-21T10:28:04.288Z,38.50
2018-03-21T10:30:38.501Z,38.20
2018-03-21T10:33:15.176Z,37.80
2018-03-21T10:35:48.902Z,39.50
2018-03-21T10:38:23.471Z,34.50
2018-03-21T10:40:57.123Z,34.50
2018-03-21T10:43:30.969Z,35.40
2018-03-21T10:46:04.870Z,35.70
2018-03-21T10:48:38.968Z,37.00
2018-03-21T10:51:13.578Z,35.90
2018-03-21T10:53:50.068Z,35.70
2018-03-21T10:56:24.704Z,36.40
2018-03-21T10:58:58.546Z,36.30
2018-03-21T11:01:40.077Z,39.30
2018-03-21T11:04:13.787Z,40.20
2018-03-21T11:06:47.533Z,38.70
2018-03-21T11:09:21.353Z,41.10
2018-03-21T11:11:55.256Z,41.50
2018-03-21T11:14:29.080Z,40.00
2018-03-21T11:17:04.539Z,40.30
2018-03-21T11:19:38.292Z,39.60
2018-03-21T11:22:12.072Z,38.40
2018-03-21T11:24:46.550Z,39.90
2018-03-21T11:27:21.204Z,40.70
2018-03-21T11:29:58.055Z,42.10
2018-03-21T11:32:32.604Z,38.50
2018-03-21T11:35:06.481Z,38.50
2018-03-21T11:37:41.039Z,39.80
2018-03-21T11:40:15.851Z,39.30
2018-03-21T11:42:49.578Z,39.30
2018-03-21T11:45:27.419Z,37.00
2018-03-21T11:48:06.103Z,37.30
2018-03-21T11:50:41.577Z,39.00
2018-03-21T11:53:15.451Z,40.00
2018-03-21T11:55:49.406Z,42.30
2018-03-21T11:58:24.115Z,41.30
2018-03-21T12:00:57.832Z,41.20
2018-03-21T12:03:33.256Z,43.20
2018-03-21T12:06:09.279Z,45.30
2018-03-21T12:08:48.938Z,44.50
2018-03-21T12:11:22.960Z,44.70
2018-03-21T12:13:56.888Z,44.60
2018-03-21T12:16:30.709Z,42.70
2018-03-21T12:19:05.736Z,43.10
2018-03-21T12:21:39.615Z,42.60
2018-03-21T12:24:13.442Z,43.50
2018-03-21T12:26:50.711Z,45.50
2018-03-21T12:29:24.465Z,45.40
2018-03-21T12:31:59.869Z,44.10
2018-03-21T12:34:34.497Z,44.00
2018-03-21T12:37:10.088Z,44.20
2018-03-21T12:39:45.573Z,43.90
2018-03-21T12:42:19.484Z,43.50
2018-03-21T12:44:54.886Z,42.20
2018-03-21T12:47:32.547Z,42.20
2018-03-21T12:50:06.507Z,42.20
2018-03-21T12:52:40.549Z,41.10
2018-03-21T12:55:14.402Z,41.00
2018-03-21T12:57:48.996Z,41.70
2018-03-21T13:00:22.728Z,41.70
2018-03-21T13:02:59.296Z,41.60
2018-03-21T13:05:33.020Z,42.00
2018-03-21T13:08:09.423Z,41.90
2018-03-21T13:10:43.876Z,42.10
2018-03-21T13:13:17.616Z,42.10
2018-03-21T13:15:52.096Z,41.60
2018-03-21T13:18:25.900Z,41.50
2018-03-21T13:20:59.961Z,41.40
2018-03-21T13:23:33.657Z,41.50
2018-03-21T13:26:08.210Z,40.90
2018-03-21T13:28:41.908Z,40.90
2018-03-21T13:31:16.452Z,39.30
2018-03-21T13:33:50.485Z,39.20
2018-03-21T13:36:24.224Z,39.10
2018-03-21T13:38:58.690Z,37.70
2018-03-21T13:41:34.442Z,37.70
2018-03-21T13:44:08.099Z,37.20
2018-03-21T13:46:41.730Z,38.70
2018-03-21T13:49:15.470Z,38.90
2018-03-21T13:51:49.149Z,38.60
2018-03-21T13:54:23.685Z,37.90
2018-03-21T13:56:57.516Z,37.90
2018-03-21T13:59:31.318Z,38.60
2018-03-21T14:02:05.244Z,37.30
2018-03-21T14:04:39.029Z,37.00
2018-03-21T14:07:12.793Z,37.40
2018-03-21T14:09:46.619Z,36.00
2018-03-21T14:12:20.473Z,36.00
2018-03-21T14:14:55.192Z,35.80
2018-03-21T14:17:29.016Z,35.70
2018-03-21T14:20:04.384Z,34.80
2018-03-21T14:22:38.122Z,34.80
2018-03-21T14:25:11.898Z,34.00
2018-03-21T14:27:45.706Z,34.90
2018-03-21T14:30:20.376Z,33.90
2018-03-21T14:32:54.048Z,33.10
2018-03-21T14:35:27.834Z,34.50
2018-03-21T14:38:01.728Z,34.30
2018-03-21T14:40:35.520Z,34.30
2018-03-21T14:43:10.180Z,34.10
2018-03-21T14:45:44.043Z,34.10
2018-03-21T14:48:18.192Z,33.40
2018-03-21T14:50:51.912Z,32.00
2018-03-21T14:53:25.770Z,32.40
2018-03-21T14:55:59.432Z,32.00
2018-03-21T14:58:34.070Z,30.50
2018-03-21T15:01:07.870Z,30.50
2018-03-21T15:03:41.747Z,31.60
2018-03-21T15:06:17.513Z,31.30
2018-03-21T15:08:51.323Z,30.00
2018-03-21T15:11:25.337Z,30.30
2018-03-21T15:14:00.148Z,30.20
2018-03-21T15:16:33.746Z,30.60
2018-03-21T15:19:07.510Z,30.80
2018-03-21T15:21:41.380Z,31.40
2018-03-21T15:24:15.203Z,29.90
2018-03-21T15:26:49.800Z,30.80
2018-03-21T15:29:23.757Z,30.80
2018-03-21T15:31:58.660Z,31.10
2018-03-21T15:34:32.506Z,31.10
2018-03-21T15:37:06.232Z,31.70
2018-03-21T15:39:40.831Z,31.60
2018-03-21T15:42:14.517Z,31.60
2018-03-21T15:44:48.421Z,30.60
2018-03-21T15:47:22.628Z,32.10
2018-03-21T15:49:56.615Z,31.60
2018-03-21T15:52:30.386Z,31.30
2018-03-21T15:55:04.223Z,30.00
2018-03-21T15:57:38.998Z,29.80
2018-03-21T16:00:13.482Z,30.10
2018-03-21T16:02:47.215Z,30.00
2018-03-21T16:05:22.438Z,30.10
2018-03-21T16:07:56.976Z,29.70
2018-03-21T16:10:30.624Z,29.70
2018-03-21T16:13:04.354Z,30.00
2018-03-21T16:21:38.344Z,29.90
2018-03-21T16:24:12.130Z,29.90
2018-03-21T16:26:45.943Z,29.00
2018-03-21T16:29:22.863Z,29.60
2018-03-21T16:31:56.605Z,30.10
2018-03-21T16:34:30.307Z,30.60
2018-03-21T16:37:04.164Z,30.60
2018-03-21T16:39:38.928Z,31.20
2018-03-21T16:42:12.678Z,31.20
2018-03-21T16:44:46.414Z,31.10
2018-03-21T16:47:20.343Z,31.10
2018-03-21T16:49:54.894Z,30.50
2018-03-21T16:52:29.514Z,31.10
2018-03-21T16:55:04.127Z,30.80
2018-03-21T16:57:38.672Z,30.80
2018-03-21T17:00:13.302Z,30.90
2018-03-21T17:02:47.002Z,30.90
2018-03-21T17:05:20.781Z,30.80
2018-03-21T17:07:54.433Z,30.60
2018-03-21T17:10:28.241Z,30.30
2018-03-21T17:13:02.044Z,30.00
2018-03-21T17:15:35.914Z,30.50
2018-03-21T17:18:10.446Z,30.30
2018-03-21T17:20:44.958Z,30.00
2018-03-21T17:23:18.731Z,30.00
2018-03-21T17:25:53.312Z,29.40
2018-03-21T17:28:27.122Z,29.40
2018-03-21T17:31:00.947Z,29.70
2018-03-21T17:33:35.624Z,30.30
2018-03-21T17:36:09.530Z,30.30
2018-03-21T17:38:43.269Z,30.00
2018-03-21T17:41:17.296Z,29.50
2018-03-21T17:43:51.201Z,29.50
2018-03-21T17:46:25.043Z,28.70
2018-03-21T17:48:59.735Z,28.90
2018-03-21T17:51:33.730Z,28.90
2018-03-21T17:54:08.234Z,29.20
2018-03-21T17:56:41.929Z,29.20
2018-03-21T17:59:15.740Z,30.00
2018-03-21T18:01:49.614Z,29.70
2018-03-21T18:04:23.624Z,29.20
2018-03-21T18:06:58.195Z,29.10
2018-03-21T18:09:32.882Z,30.60
2018-03-21T18:12:06.715Z,30.60
2018-03-21T18:14:40.636Z,31.10
2018-03-21T18:17:14.386Z,34.30
2018-03-21T18:19:48.949Z,40.00
2018-03-21T18:22:22.858Z,40.00
2018-03-21T18:24:59.035Z,40.60
2018-03-21T18:27:33.096Z,42.20
2018-03-21T18:30:07.557Z,43.40
2018-03-21T18:32:41.408Z,43.40
2018-03-21T18:35:15.981Z,41.60
2018-03-21T18:37:49.905Z,41.50
2018-03-21T18:40:23.612Z,41.80
2018-03-21T18:42:58.248Z,42.10
2018-03-21T18:45:32.035Z,42.10
2018-03-21T18:48:05.902Z,42.60
2018-03-21T18:50:39.850Z,41.90
2018-03-21T18:53:13.660Z,41.90
2018-03-21T18:55:48.181Z,41.30
2018-03-21T18:58:25.370Z,41.30
2018-03-21T19:00:59.197Z,41.60
2018-03-21T19:03:33.993Z,40.80
2018-03-21T19:06:07.710Z,40.40
2018-03-21T19:08:41.546Z,43.10
2018-03-21T19:11:15.260Z,42.70
2018-03-21T19:13:49.016Z,43.60
2018-03-21T19:16:23.652Z,44.30
2018-03-21T19:18:58.351Z,44.30
2018-03-21T19:21:32.242Z,44.20
2018-03-21T19:24:06.813Z,46.60
2018-03-21T19:26:41.771Z,47.10
2018-03-21T19:29:15.594Z,47.10
2018-03-21T19:31:50.184Z,46.80
2018-03-21T19:34:24.007Z,46.70
2018-03-21T19:36:57.793Z,46.70
2018-03-21T19:39:31.604Z,46.80
2018-03-21T19:42:06.220Z,46.60
2018-03-21T19:44:40.081Z,46.60
2018-03-21T19:47:15.902Z,44.90
2018-03-21T19:49:50.262Z,44.00
2018-03-21T19:52:24.100Z,43.50
2018-03-21T19:54:57.977Z,43.20
2018-03-21T19:57:31.943Z,43.00
2018-03-21T20:00:05.898Z,42.80
2018-03-21T20:02:40.370Z,42.60
2018-03-21T20:05:14.118Z,42.60
2018-03-21T20:07:47.953Z,43.30
2018-03-21T20:10:21.743Z,42.70
2018-03-21T20:12:55.589Z,43.90
2018-03-21T20:15:29.418Z,44.60
2018-03-21T20:18:04.011Z,45.80
2018-03-21T20:20:37.935Z,45.80
2018-03-21T20:23:11.652Z,46.30
2018-03-21T20:25:46.120Z,46.90
2018-03-21T20:28:19.912Z,46.90
2018-03-21T20:30:53.703Z,48.30
2018-03-21T20:33:28.375Z,49.00
2018-03-21T20:36:02.900Z,49.50
2018-03-21T20:38:37.492Z,49.00
2018-03-21T20:41:11.320Z,49.00
2018-03-21T20:43:45.195Z,49.00
2018-03-21T20:46:19.016Z,47.90
2018-03-21T20:48:53.173Z,48.60
2018-03-21T20:51:26.953Z,48.60
2018-03-21T20:54:01.484Z,47.70
2018-03-21T20:56:36.437Z,48.30
2018-03-21T20:59:11.036Z,48.00
2018-03-21T21:01:45.582Z,48.80
2018-03-21T21:04:19.245Z,48.80
2018-03-21T21:06:53.028Z,50.20
2018-03-21T21:09:26.981Z,50.10
2018-03-21T21:12:00.712Z,50.50
2018-03-21T21:14:35.105Z,53.30
2018-03-21T21:17:09.770Z,53.80
2018-03-21T21:19:43.608Z,53.80
2018-03-21T21:22:17.375Z,54.80
2018-03-21T21:24:51.049Z,55.20
2018-03-21T21:27:24.735Z,56.20
2018-03-21T21:29:59.289Z,55.10
2018-03-21T21:32:33.255Z,55.10
2018-03-21T21:35:07.812Z,56.40
2018-03-21T21:37:41.937Z,56.40
2018-03-21T21:40:15.702Z,56.10
2018-03-21T21:42:50.701Z,56.60
2018-03-21T21:45:24.362Z,56.60
2018-03-21T21:47:58.904Z,58.50
2018-03-21T21:50:33.416Z,58.40
2018-03-21T21:53:07.364Z,59.00
2018-03-21T21:55:42.112Z,59.80
2018-03-21T21:58:15.707Z,60.10
